createdAt,value
2022-12-14T00:01:23.392Z,70.16
2022-12-14T00:03:50.625Z,70.90
2022-12-14T00:06:30.396Z,70.74
2022-12-14T00:08:59.475Z,70.60
2022-12-14T00:11:26.407Z,71.22
2022-12-14T00:13:55.491Z,70.92
2022-12-14T00:16:23.175Z,70.14
2022-12-14T00:18:52.524Z,70.50
2022-12-14T00:21:19.761Z,71.78
2022-12-14T00:23:47.944Z,71.70
2022-12-14T00:26:17.064Z,70.91
2022-12-14T00:28:44.743Z,70.40
2022-12-14T00:31:11.918Z,71.11
2022-12-14T00:33:39.200Z,70.89
2022-12-14T00:36:07.906Z,70.52
2022-12-14T00:38:34.955Z,71.33
2022-12-14T00:41:01.796Z,71.32
2022-12-14T00:43:28.465Z,71.43
2022-12-14T00:45:57.312Z,70.88
2022-12-14T00:48:25.787Z,70.22
2022-12-14T00:50:54.331Z,69.40
2022-12-14T00:53:22.105Z,69.15
2022-12-14T00:55:50.737Z,70.42
2022-12-14T00:58:20.340Z,70.60
2022-12-14T01:00:48.494Z,69.48
2022-12-14T01:03:15.694Z,70.57
2022-12-14T01:05:42.501Z,72.31
2022-12-14T01:08:15.980Z,70.69
2022-12-14T01:10:42.638Z,70.78
2022-12-14T01:13:11.407Z,70.72
2022-12-14T01:15:38.452Z,70.41
2022-12-14T01:18:05.287Z,71.33
2022-12-14T01:20:32.174Z,70.56
2022-12-14T01:22:58.725Z,70.84
2022-12-14T01:25:26.021Z,70.63
2022-12-14T01:27:52.637Z,71.30
2022-12-14T01:30:19.562Z,71.22
2022-12-14T01:32:47.002Z,71.49
2022-12-14T01:35:13.590Z,71.61
2022-12-14T01:37:40.222Z,70.82
2022-12-14T01:40:07.334Z,71.40
2022-12-14T01:42:35.921Z,70.82
2022-12-14T01:45:03.181Z,70.37
2022-12-14T01:47:41.167Z,71.58
2022-12-14T01:50:22.574Z,71.14
2022-12-14T01:52:54.192Z,71.48
2022-12-14T01:55:24.767Z,70.60
2022-12-14T01:58:01.105Z,71.28
2022-12-14T02:00:28.856Z,71.69
2022-12-14T02:03:07.933Z,69.76
2022-12-14T02:05:38.796Z,70.66
2022-12-14T02:08:07.620Z,70.42
2022-12-14T02:10:34.559Z,71.28
2022-12-14T02:13:14.891Z,71.99
2022-12-14T02:15:42.140Z,71.79
2022-12-14T02:18:14.343Z,71.16
2022-12-14T02:20:55.732Z,70.77
2022-12-14T02:23:46.832Z,71.96
2022-12-14T02:26:37.665Z,71.03
2022-12-14T02:29:10.385Z,71.19
2022-12-14T02:31:57.796Z,71.55
2022-12-14T02:34:45.606Z,71.41
2022-12-14T02:37:29.289Z,71.19
2022-12-14T02:40:21.572Z,72.11
2022-12-14T02:43:21.830Z,71.46
2022-12-14T02:46:25.238Z,71.75
2022-12-14T02:49:15.567Z,71.06
2022-12-14T02:51:57.308Z,71.32
2022-12-14T02:54:40.275Z,71.47
2022-12-14T02:57:16.188Z,70.89
2022-12-14T02:59:43.252Z,71.00
2022-12-14T03:02:12.800Z,71.02
2022-12-14T03:04:46.052Z,71.19
2022-12-14T03:07:45.146Z,72.34
2022-12-14T03:10:37.410Z,71.77
2022-12-14T03:13:17.991Z,71.89
2022-12-14T03:15:53.092Z,72.09
2022-12-14T03:18:21.623Z,71.19
2022-12-14T03:20:52.667Z,71.49
2022-12-14T03:23:27.351Z,70.90
2022-12-14T03:26:02.932Z,71.59
2022-12-14T03:28:38.193Z,70.53
2022-12-14T03:31:13.597Z,72.04
2022-12-14T03:33:43.430Z,71.17
2022-12-14T03:36:21.944Z,73.59
2022-12-14T03:38:53.057Z,72.13
2022-12-14T03:41:29.027Z,73.04
2022-12-14T03:44:21.162Z,72.96
2022-12-14T03:46:53.787Z,72.70
2022-12-14T03:49:46.068Z,71.87
2022-12-14T03:52:26.677Z,71.34
2022-12-14T03:55:24.181Z,70.17
2022-12-14T03:58:23.132Z,71.32
2022-12-14T04:01:00.174Z,71.65
2022-12-14T04:03:42.008Z,72.41
2022-12-14T04:06:19.870Z,73.63
2022-12-14T04:09:07.710Z,73.42
2022-12-14T04:11:59.086Z,72.99
2022-12-14T04:14:53.280Z,72.49
2022-12-14T04:17:46.293Z,74.22
2022-12-14T04:20:28.679Z,73.93
2022-12-14T04:23:04.333Z,73.09
2022-12-14T04:25:53.971Z,70.51
2022-12-14T04:28:45.116Z,72.86
2022-12-14T04:31:20.674Z,73.94
2022-12-14T04:33:58.022Z,73.74
2022-12-14T04:36:30.941Z,71.63
2022-12-14T04:39:04.734Z,71.34
2022-12-14T04:41:36.594Z,70.94
2022-12-14T04:44:08.888Z,71.37
2022-12-14T04:46:40.868Z,72.97
2022-12-14T04:49:17.013Z,73.03
2022-12-14T04:52:05.449Z,73.40
2022-12-14T04:54:45.279Z,74.36
2022-12-14T04:57:22.034Z,73.97
2022-12-14T04:59:49.365Z,72.27
2022-12-14T05:02:21.910Z,72.41
2022-12-14T05:05:02.358Z,74.62
2022-12-14T05:07:43.220Z,74.21
2022-12-14T05:10:14.370Z,70.33
2022-12-14T05:12:48.799Z,72.56
2022-12-14T05:15:21.325Z,71.27
2022-12-14T05:17:47.956Z,71.74
2022-12-14T05:20:21.173Z,72.76
2022-12-14T05:22:48.262Z,72.70
2022-12-14T05:25:14.839Z,73.04
2022-12-14T05:27:41.768Z,72.65
2022-12-14T05:30:09.020Z,72.27
2022-12-14T05:32:35.661Z,72.48
2022-12-14T05:35:03.879Z,70.88
2022-12-14T05:37:30.513Z,71.84
2022-12-14T05:39:57.249Z,71.12
2022-12-14T05:42:24.049Z,70.77
2022-12-14T05:44:50.624Z,70.68
2022-12-14T05:47:17.360Z,71.51
2022-12-14T05:49:43.929Z,70.64
2022-12-14T05:52:10.436Z,70.99
2022-12-14T05:54:36.940Z,70.65
2022-12-14T05:57:03.718Z,72.61
2022-12-14T05:59:30.941Z,71.36
2022-12-14T06:01:58.186Z,71.64
2022-12-14T06:04:25.072Z,71.75
2022-12-14T06:06:51.817Z,73.08
2022-12-14T06:09:19.291Z,73.40
2022-12-14T06:11:47.256Z,74.15
2022-12-14T06:14:14.260Z,74.34
2022-12-14T06:16:42.360Z,75.43
2022-12-14T06:19:09.806Z,73.34
2022-12-14T06:21:38.576Z,72.93
2022-12-14T06:24:06.212Z,73.91
2022-12-14T06:26:36.548Z,73.27
2022-12-14T06:29:03.906Z,74.14
2022-12-14T06:31:32.379Z,72.87
2022-12-14T06:34:02.003Z,73.27
2022-12-14T06:36:31.085Z,74.44
2022-12-14T06:39:01.432Z,75.11
2022-12-14T06:41:28.110Z,74.56
2022-12-14T06:43:55.211Z,76.53
2022-12-14T06:46:23.395Z,74.60
2022-12-14T06:48:53.548Z,75.56
2022-12-14T06:51:24.090Z,74.35
2022-12-14T06:53:52.381Z,73.54
2022-12-14T06:56:20.519Z,74.73
2022-12-14T06:58:47.682Z,74.79
2022-12-14T07:01:17.931Z,74.23
2022-12-14T07:03:48.568Z,74.19
2022-12-14T07:06:15.121Z,75.36
2022-12-14T07:08:41.640Z,73.10
2022-12-14T07:11:11.743Z,75.26
2022-12-14T07:13:38.898Z,74.75
2022-12-14T07:16:07.321Z,76.13
2022-12-14T07:18:34.788Z,73.97
2022-12-14T07:21:02.664Z,76.23
2022-12-14T07:23:31.518Z,76.29
2022-12-14T07:26:08.139Z,77.99
2022-12-14T07:28:37.110Z,74.86
2022-12-14T07:31:05.775Z,76.46
2022-12-14T07:33:32.659Z,73.67
2022-12-14T07:36:06.465Z,74.24
2022-12-14T07:38:34.951Z,73.46
2022-12-14T07:41:03.599Z,75.52
2022-12-14T07:43:30.386Z,75.17
2022-12-14T07:46:05.811Z,75.72
2022-12-14T07:48:33.501Z,76.50
2022-12-14T07:51:04.701Z,75.93
2022-12-14T07:53:31.690Z,75.93
2022-12-14T07:56:05.503Z,76.21
2022-12-14T07:58:33.693Z,76.92
2022-12-14T08:01:22.648Z,77.02
2022-12-14T08:03:52.277Z,77.23
2022-12-14T08:06:20.183Z,77.67
2022-12-14T08:08:46.874Z,77.01
2022-12-14T08:11:14.584Z,76.07
2022-12-14T08:13:43.471Z,76.70
2022-12-14T08:16:15.617Z,75.74
2022-12-14T08:18:43.860Z,77.89
2022-12-14T08:21:13.128Z,78.21
2022-12-14T08:23:41.641Z,77.57
2022-12-14T08:26:08.743Z,77.92
2022-12-14T08:28:36.246Z,77.07
2022-12-14T08:31:14.197Z,77.83
2022-12-14T08:33:41.917Z,78.73
2022-12-14T08:36:15.058Z,76.48
2022-12-14T08:38:42.535Z,76.89
2022-12-14T08:41:11.799Z,76.62
2022-12-14T08:43:39.362Z,76.16
2022-12-14T08:46:09.642Z,77.29
2022-12-14T08:48:36.944Z,77.29
2022-12-14T08:51:10.142Z,76.41
2022-12-14T08:53:38.031Z,76.32
2022-12-14T08:56:09.322Z,76.76
2022-12-14T08:58:37.011Z,77.54
2022-12-14T09:01:06.087Z,76.16
2022-12-14T09:03:33.704Z,78.84
2022-12-14T09:06:09.320Z,76.60
2022-12-14T09:08:36.278Z,77.31
2022-12-14T09:11:04.734Z,77.90
2022-12-14T09:13:32.261Z,79.01
2022-12-14T09:16:01.120Z,80.26
2022-12-14T09:18:30.794Z,78.44
2022-12-14T09:21:00.174Z,79.04
2022-12-14T09:23:29.385Z,76.75
2022-12-14T09:26:05.778Z,76.60
2022-12-14T09:28:35.485Z,76.31
2022-12-14T09:31:08.406Z,80.44
2022-12-14T09:33:35.480Z,81.50
2022-12-14T09:36:13.258Z,79.11
2022-12-14T09:38:48.727Z,79.94
2022-12-14T09:41:32.706Z,79.93
2022-12-14T09:44:25.119Z,81.20
2022-12-14T09:46:56.403Z,78.40
2022-12-14T09:49:28.507Z,77.33
2022-12-14T09:51:58.901Z,78.12
2022-12-14T09:54:29.833Z,77.34
2022-12-14T09:57:01.186Z,79.64
2022-12-14T09:59:30.243Z,79.92
2022-12-14T10:05:05.322Z,79.23
2022-12-14T10:07:59.449Z,76.99
2022-12-14T10:10:31.855Z,78.30
2022-12-14T10:13:16.970Z,79.00
2022-12-14T10:16:04.878Z,75.02
2022-12-14T10:18:58.168Z,77.23
2022-12-14T10:21:39.516Z,74.19
2022-12-14T10:24:12.916Z,73.53
2022-12-14T10:26:46.593Z,77.16
2022-12-14T10:29:25.691Z,72.95
2022-12-14T10:32:05.527Z,77.88
2022-12-14T10:34:35.311Z,78.00
2022-12-14T10:37:27.288Z,75.08
2022-12-14T10:40:22.077Z,74.89
2022-12-14T10:43:12.541Z,73.75
2022-12-14T10:45:47.956Z,74.26
2022-12-14T10:48:45.199Z,74.71
2022-12-14T10:51:20.057Z,74.87
2022-12-14T10:54:20.760Z,72.59
2022-12-14T10:56:49.927Z,72.55
2022-12-14T10:59:23.770Z,71.48
2022-12-14T11:01:57.276Z,71.76
2022-12-14T11:04:31.899Z,71.12
2022-12-14T11:07:01.202Z,70.77
2022-12-14T11:09:28.542Z,76.42
2022-12-14T11:12:13.798Z,72.27
2022-12-14T11:15:01.215Z,72.93
2022-12-14T11:17:40.637Z,73.71
2022-12-14T11:20:23.426Z,71.43
2022-12-14T11:23:08.810Z,70.83
2022-12-14T11:25:41.760Z,71.04
2022-12-14T11:28:20.823Z,72.87
2022-12-14T11:30:56.039Z,72.85
2022-12-14T11:33:26.224Z,77.03
2022-12-14T11:35:53.343Z,74.16
2022-12-14T11:38:20.421Z,75.49
2022-12-14T11:40:47.487Z,74.30
2022-12-14T11:43:26.417Z,74.59
2022-12-14T11:45:55.519Z,72.25
2022-12-14T11:48:24.971Z,70.56
2022-12-14T11:50:54.717Z,74.12
2022-12-14T11:53:23.389Z,73.85
2022-12-14T11:55:57.186Z,69.02
2022-12-14T11:58:37.459Z,69.79
2022-12-14T12:01:11.016Z,72.47
2022-12-14T12:03:41.422Z,73.00
2022-12-14T12:06:12.476Z,73.97
2022-12-14T12:08:43.628Z,73.43
2022-12-14T12:11:18.930Z,71.30
2022-12-14T12:13:50.903Z,68.85
2022-12-14T12:16:26.273Z,71.36
2022-12-14T12:19:12.123Z,71.17
2022-12-14T12:21:44.981Z,69.46
2022-12-14T12:24:24.141Z,71.42
2022-12-14T12:26:55.398Z,73.67
2022-12-14T12:29:28.180Z,73.32
2022-12-14T12:31:57.284Z,73.83
2022-12-14T12:34:32.951Z,72.51
2022-12-14T12:37:25.703Z,73.25
2022-12-14T12:39:57.322Z,71.34
2022-12-14T12:42:34.235Z,71.92
2022-12-14T12:45:07.938Z,72.01
2022-12-14T12:47:48.423Z,69.09
2022-12-14T12:50:25.113Z,68.57
2022-12-14T12:53:03.650Z,68.08
2022-12-14T12:55:36.390Z,68.57
2022-12-14T12:58:09.590Z,69.04
2022-12-14T13:00:38.247Z,70.19
2022-12-14T13:03:16.097Z,65.06
2022-12-14T13:05:46.707Z,68.89
2022-12-14T13:08:22.690Z,65.41
2022-12-14T13:13:44.308Z,66.84
2022-12-14T13:16:24.635Z,66.40
2022-12-14T13:19:18.614Z,67.32
2022-12-14T13:21:53.036Z,67.23
2022-12-14T13:24:22.957Z,68.12
2022-12-14T13:27:15.502Z,64.53
2022-12-14T13:30:03.691Z,67.09
2022-12-14T13:32:39.086Z,63.77
2022-12-14T13:35:31.760Z,64.53
2022-12-14T13:38:07.534Z,66.34
2022-12-14T13:40:43.162Z,66.30
2022-12-14T13:43:15.358Z,65.87
2022-12-14T13:45:46.200Z,64.36
2022-12-14T13:48:23.686Z,62.65
2022-12-14T13:51:01.414Z,64.57
2022-12-14T13:53:35.071Z,63.16
2022-12-14T13:56:02.501Z,63.44
2022-12-14T13:58:40.925Z,62.15
2022-12-14T14:01:16.016Z,64.43
2022-12-14T14:03:45.988Z,65.91
2022-12-14T14:06:12.754Z,64.82
2022-12-14T14:08:42.311Z,65.08
2022-12-14T14:11:36.555Z,61.69
2022-12-14T14:14:26.855Z,64.95
2022-12-14T14:16:58.198Z,63.34
2022-12-14T14:19:27.805Z,64.95
2022-12-14T14:22:22.809Z,65.78
2022-12-14T14:24:57.078Z,65.76
2022-12-14T14:27:39.659Z,65.27
2022-12-14T14:30:41.455Z,63.87
2022-12-14T14:33:47.856Z,65.01
2022-12-14T14:36:22.353Z,65.06
2022-12-14T14:38:51.285Z,65.48
2022-12-14T14:41:24.872Z,62.07
2022-12-14T14:43:57.043Z,63.34
2022-12-14T14:46:36.861Z,62.87
2022-12-14T14:49:05.148Z,63.57
2022-12-14T14:51:35.776Z,64.44
2022-12-14T14:54:56.154Z,63.24
2022-12-14T14:57:35.348Z,62.52
2022-12-14T15:00:04.831Z,63.07
2022-12-14T15:02:41.708Z,63.02
2022-12-14T15:08:19.854Z,63.19
2022-12-14T15:10:47.989Z,63.69
2022-12-14T15:13:27.363Z,62.87
2022-12-14T15:15:56.793Z,62.90
2022-12-14T15:18:26.036Z,62.25
2022-12-14T15:21:08.602Z,62.30
2022-12-14T15:23:45.513Z,62.39
2022-12-14T15:26:23.662Z,62.85
2022-12-14T15:28:53.139Z,63.85
2022-12-14T15:31:32.569Z,64.37
2022-12-14T15:34:01.405Z,63.72
2022-12-14T15:36:40.173Z,64.13
2022-12-14T15:39:06.741Z,63.79
2022-12-14T15:41:33.815Z,64.63
2022-12-14T15:44:01.083Z,63.83
2022-12-14T15:46:33.680Z,64.00
2022-12-14T15:49:04.657Z,64.71
2022-12-14T15:51:37.189Z,65.02
2022-12-14T15:54:06.022Z,64.18
2022-12-14T15:56:32.477Z,64.95
2022-12-14T15:59:05.297Z,64.96
2022-12-14T16:01:37.880Z,65.73
2022-12-14T16:04:07.635Z,65.54
2022-12-14T16:06:42.055Z,66.79
2022-12-14T16:09:22.947Z,66.59
2022-12-14T16:11:55.059Z,66.49
2022-12-14T16:14:36.188Z,66.74
2022-12-14T16:17:04.772Z,67.20
2022-12-14T16:19:57.315Z,67.70
2022-12-14T16:22:25.351Z,67.56
2022-12-14T16:25:18.265Z,67.71
2022-12-14T16:27:50.247Z,68.40
2022-12-14T16:30:27.924Z,68.83
2022-12-14T16:33:11.325Z,67.92
2022-12-14T16:35:38.803Z,67.88
2022-12-14T16:38:12.460Z,68.34
2022-12-14T16:40:55.380Z,67.75
2022-12-14T16:43:36.218Z,67.74
2022-12-14T16:46:05.861Z,68.15
2022-12-14T16:48:40.723Z,68.70
2022-12-14T16:51:32.631Z,69.32
2022-12-14T16:54:07.613Z,68.57
2022-12-14T16:56:45.178Z,68.31
2022-12-14T16:59:45.551Z,68.21
2022-12-14T17:02:27.128Z,68.89
2022-12-14T17:04:54.719Z,68.24
2022-12-14T17:07:24.796Z,68.92
2022-12-14T17:09:51.717Z,69.09
2022-12-14T17:12:19.161Z,68.90
2022-12-14T17:14:49.960Z,69.31
2022-12-14T17:17:22.442Z,69.93
2022-12-14T17:19:49.136Z,69.74
2022-12-14T17:22:28.436Z,69.86
2022-12-14T17:25:04.950Z,69.20
2022-12-14T17:27:31.880Z,69.17
2022-12-14T17:29:58.858Z,69.56
2022-12-14T17:32:29.938Z,69.32
2022-12-14T17:34:57.079Z,69.23
2022-12-14T17:37:36.193Z,69.38
2022-12-14T17:40:04.715Z,69.99
2022-12-14T17:42:31.597Z,69.67
2022-12-14T17:44:59.488Z,70.37
2022-12-14T17:47:26.326Z,70.37
2022-12-14T17:49:52.984Z,70.19
2022-12-14T17:52:25.362Z,70.31
2022-12-14T17:54:52.048Z,70.33
2022-12-14T17:57:21.009Z,70.24
2022-12-14T17:59:48.611Z,70.37
2022-12-14T18:02:33.736Z,70.03
2022-12-14T18:05:00.509Z,70.03
2022-12-14T18:07:27.217Z,70.46
2022-12-14T18:09:55.086Z,69.90
2022-12-14T18:12:23.934Z,69.31
2022-12-14T18:14:51.594Z,69.08
2022-12-14T18:17:19.222Z,69.30
2022-12-14T18:19:47.711Z,69.23
2022-12-14T18:22:14.929Z,70.21
2022-12-14T18:24:41.520Z,70.27
2022-12-14T18:27:10.534Z,70.92
2022-12-14T18:29:39.230Z,71.11
2022-12-14T18:32:06.259Z,71.10
2022-12-14T18:34:33.097Z,71.28
2022-12-14T18:36:59.959Z,70.86
2022-12-14T18:39:26.777Z,71.30
2022-12-14T18:41:53.723Z,71.52
2022-12-14T18:44:20.488Z,71.60
2022-12-14T18:46:49.464Z,71.56
2022-12-14T18:49:16.561Z,71.92
2022-12-14T18:51:43.734Z,71.66
2022-12-14T18:54:11.571Z,71.78
2022-12-14T18:56:41.458Z,71.56
2022-12-14T18:59:08.172Z,71.40
2022-12-14T19:01:35.012Z,71.39
2022-12-14T19:04:02.037Z,70.94
2022-12-14T19:06:45.504Z,71.12
2022-12-14T19:09:13.753Z,71.11
2022-12-14T19:11:42.218Z,71.18
2022-12-14T19:14:10.270Z,71.29
2022-12-14T19:16:37.429Z,71.64
2022-12-14T19:19:04.205Z,71.74
2022-12-14T19:21:31.807Z,70.32
2022-12-14T19:23:59.875Z,71.13
2022-12-14T19:26:28.307Z,71.04
2022-12-14T19:28:55.293Z,70.97
2022-12-14T19:31:22.100Z,71.45
2022-12-14T19:33:48.854Z,71.15
2022-12-14T19:36:15.835Z,70.98
2022-12-14T19:38:42.605Z,71.34
2022-12-14T19:41:12.221Z,71.74
2022-12-14T19:43:39.078Z,72.03
2022-12-14T19:46:08.763Z,71.65
2022-12-14T19:48:35.480Z,71.70
2022-12-14T19:51:13.008Z,71.81
2022-12-14T19:53:41.544Z,71.91
2022-12-14T19:56:09.154Z,71.95
2022-12-14T19:58:36.183Z,72.26
2022-12-14T20:01:08.294Z,72.23
2022-12-14T20:03:35.982Z,72.10
2022-12-14T20:06:04.810Z,71.47
2022-12-14T20:08:32.952Z,72.06
2022-12-14T20:11:05.111Z,72.22
2022-12-14T20:13:32.197Z,72.64
2022-12-14T20:15:59.458Z,72.63
2022-12-14T20:18:27.352Z,72.59
2022-12-14T20:21:01.288Z,72.62
2022-12-14T20:23:28.140Z,72.55
2022-12-14T20:26:00.195Z,72.62
2022-12-14T20:28:27.120Z,72.64
2022-12-14T20:30:54.010Z,72.27
2022-12-14T20:33:25.150Z,72.61
2022-12-14T20:35:54.916Z,72.19
2022-12-14T20:38:21.482Z,72.17
2022-12-14T20:40:48.001Z,72.19
2022-12-14T20:43:14.540Z,71.75
2022-12-14T20:45:46.710Z,71.81
2022-12-14T20:48:13.794Z,71.48
2022-12-14T20:50:43.565Z,71.91
2022-12-14T20:53:10.161Z,71.65
2022-12-14T20:55:37.789Z,71.74
2022-12-14T20:58:04.586Z,71.67
2022-12-14T21:00:31.554Z,72.03
2022-12-14T21:02:58.318Z,72.16
2022-12-14T21:05:25.327Z,71.49
2022-12-14T21:07:52.102Z,71.61
2022-12-14T21:10:19.085Z,71.54
2022-12-14T21:12:49.379Z,71.16
2022-12-14T21:15:16.251Z,71.81
2022-12-14T21:17:42.835Z,71.59
2022-12-14T21:20:11.577Z,71.80
2022-12-14T21:22:38.670Z,71.55
2022-12-14T21:25:06.617Z,71.65
2022-12-14T21:27:35.952Z,71.70
2022-12-14T21:30:02.768Z,72.26
2022-12-14T21:32:29.455Z,71.65
2022-12-14T21:34:56.231Z,71.36
2022-12-14T21:37:22.912Z,69.81
2022-12-14T21:39:54.842Z,69.62
2022-12-14T21:42:25.241Z,69.33
2022-12-14T21:44:53.623Z,69.60
2022-12-14T21:47:24.423Z,69.36
2022-12-14T21:49:51.063Z,70.98
2022-12-14T21:52:22.057Z,72.04
2022-12-14T21:54:49.014Z,72.79
2022-12-14T21:57:38.483Z,72.15
2022-12-14T22:00:07.895Z,72.11
2022-12-14T22:02:34.926Z,71.67
2022-12-14T22:05:01.870Z,71.88
2022-12-14T22:07:33.811Z,70.12
2022-12-14T22:10:01.136Z,66.11
2022-12-14T22:12:27.935Z,64.91
2022-12-14T22:14:54.705Z,70.33
2022-12-14T22:17:21.225Z,72.04
2022-12-14T22:19:49.022Z,67.76
2022-12-14T22:22:17.090Z,73.58
2022-12-14T22:24:45.080Z,71.52
2022-12-14T22:27:12.343Z,71.26
2022-12-14T22:29:39.010Z,69.94
2022-12-14T22:32:06.920Z,65.88
2022-12-14T22:34:33.902Z,69.54
2022-12-14T22:37:00.455Z,65.87
2022-12-14T22:39:27.010Z,67.87
2022-12-14T22:41:53.694Z,68.77
2022-12-14T22:44:20.323Z,70.16
2022-12-14T22:46:47.030Z,69.04
2022-12-14T22:49:17.488Z,67.88
2022-12-14T22:51:44.208Z,68.68
2022-12-14T22:54:25.360Z,68.85
2022-12-14T22:56:58.376Z,68.80
2022-12-14T22:59:32.454Z,63.44
2022-12-14T23:01:59.688Z,63.27
2022-12-14T23:04:26.802Z,67.78
2022-12-14T23:06:54.552Z,72.58
2022-12-14T23:09:39.899Z,69.07
2022-12-14T23:12:25.577Z,66.39
2022-12-14T23:15:10.671Z,65.86
2022-12-14T23:17:55.665Z,69.24
2022-12-14T23:20:40.701Z,64.09
2022-12-14T23:23:27.310Z,62.96
2022-12-14T23:26:12.445Z,68.95
2022-12-14T23:28:58.118Z,69.08
2022-12-14T23:31:43.401Z,69.33
2022-12-14T23:34:31.662Z,64.76
2022-12-14T23:37:20.461Z,62.92
2022-12-14T23:40:06.925Z,63.75
2022-12-14T23:42:52.148Z,68.03
2022-12-14T23:45:37.849Z,67.65
2022-12-14T23:48:22.841Z,66.42
2022-12-14T23:51:07.966Z,65.47
2022-12-14T23:53:52.969Z,70.66
2022-12-14T23:56:38.323Z,67.56
2022-12-14T23:59:28.030Z,66.79
